sensor_id;sensor_type;location;lat;lon;timestamp;pressure;altitude;pressure_sealevel;temperature;humidity
84051;BME280;74137;50.136;19.040;2023-12-14T00:13:44;97521.17;;;3.99;77.33
84051;BME280;74137;50.136;19.040;2023-12-14T00:16:48;97527.22;;;3.99;77.39
84051;BME280;74137;50.136;19.040;2023-12-14T00:26:30;97539.75;;;4.02;77.04
84051;BME280;74137;50.136;19.040;2023-12-14T00:29:37;97542.89;;;4.02;77.14
84051;BME280;74137;50.136;19.040;2023-12-14T00:36:03;97557.08;;;4.06;77.22
84051;BME280;74137;50.136;19.040;2023-12-14T00:39:30;97558.65;;;4.06;77.03
84051;BME280;74137;50.136;19.040;2023-12-14T01:20:40;97594.02;;;3.97;76.89
84051;BME280;74137;50.136;19.040;2023-12-14T01:23:11;97598.52;;;3.98;76.96
84051;BME280;74137;50.136;19.040;2023-12-14T01:25:40;97599.77;;;3.97;76.88
84051;BME280;74137;50.136;19.040;2023-12-14T01:52:22;97586.36;;;3.98;76.92
84051;BME280;74137;50.136;19.040;2023-12-14T02:04:27;97595.99;;;4.00;76.88
84051;BME280;74137;50.136;19.040;2023-12-14T02:10:22;97582.23;;;3.94;76.62
84051;BME280;74137;50.136;19.040;2023-12-14T02:13:57;97585.16;;;3.94;76.63
84051;BME280;74137;50.136;19.040;2023-12-14T02:16:26;97583.64;;;3.89;76.41
84051;BME280;74137;50.136;19.040;2023-12-14T02:23:20;97586.80;;;3.81;76.73
84051;BME280;74137;50.136;19.040;2023-12-14T02:29:15;97592.66;;;3.83;77.09
84051;BME280;74137;50.136;19.040;2023-12-14T02:31:44;97597.99;;;3.84;77.15
84051;BME280;74137;50.136;19.040;2023-12-14T02:34:16;97602.40;;;3.86;77.06
84051;BME280;74137;50.136;19.040;2023-12-14T02:36:47;97600.47;;;3.83;77.03
84051;BME280;74137;50.136;19.040;2023-12-14T02:39:33;97606.65;;;3.84;77.12
84051;BME280;74137;50.136;19.040;2023-12-14T02:42:07;97605.73;;;3.81;77.01
84051;BME280;74137;50.136;19.040;2023-12-14T02:47:35;97608.36;;;3.85;77.06
84051;BME280;74137;50.136;19.040;2023-12-14T02:57:37;97620.87;;;3.88;77.05
84051;BME280;74137;50.136;19.040;2023-12-14T03:00:08;97627.11;;;3.88;76.94
84051;BME280;74137;50.136;19.040;2023-12-14T03:06:01;97630.92;;;3.91;77.20
84051;BME280;74137;50.136;19.040;2023-12-14T03:09:11;97630.54;;;3.93;76.92
84051;BME280;74137;50.136;19.040;2023-12-14T03:12:11;97634.80;;;3.90;77.03
84051;BME280;74137;50.136;19.040;2023-12-14T03:17:44;97648.60;;;3.89;77.01
84051;BME280;74137;50.136;19.040;2023-12-14T03:32:58;97662.88;;;3.96;77.12
84051;BME280;74137;50.136;19.040;2023-12-14T03:36:02;97670.61;;;3.93;76.95
84051;BME280;74137;50.136;19.040;2023-12-14T03:38:33;97675.52;;;3.92;76.98
84051;BME280;74137;50.136;19.040;2023-12-14T04:31:13;97750.93;;;3.87;76.79
84051;BME280;74137;50.136;19.040;2023-12-14T04:33:47;97754.24;;;3.87;76.91
84051;BME280;74137;50.136;19.040;2023-12-14T05:08:12;97792.25;;;3.99;76.93
84051;BME280;74137;50.136;19.040;2023-12-14T05:11:21;97790.94;;;3.97;76.88
84051;BME280;74137;50.136;19.040;2023-12-14T05:14:15;97796.48;;;3.98;76.80
84051;BME280;74137;50.136;19.040;2023-12-14T05:19:59;97809.11;;;4.02;76.75
84051;BME280;74137;50.136;19.040;2023-12-14T05:23:12;97811.15;;;4.03;76.83
84051;BME280;74137;50.136;19.040;2023-12-14T05:32:21;97828.63;;;4.01;76.81
84051;BME280;74137;50.136;19.040;2023-12-14T05:37:55;97830.41;;;4.00;76.72
84051;BME280;74137;50.136;19.040;2023-12-14T05:44:10;97839.31;;;3.99;77.05
84051;BME280;74137;50.136;19.040;2023-12-14T05:47:32;97843.15;;;3.99;77.11
84051;BME280;74137;50.136;19.040;2023-12-14T06:27:57;97903.77;;;3.86;77.25
84051;BME280;74137;50.136;19.040;2023-12-14T06:31:57;97908.45;;;3.87;77.30
84051;BME280;74137;50.136;19.040;2023-12-14T06:34:40;97913.64;;;3.91;77.45
84051;BME280;74137;50.136;19.040;2023-12-14T06:44:13;97927.95;;;3.94;77.33
84051;BME280;74137;50.136;19.040;2023-12-14T06:46:48;97929.98;;;3.95;77.23
84051;BME280;74137;50.136;19.040;2023-12-14T07:04:25;97940.40;;;4.63;75.96
84051;BME280;74137;50.136;19.040;2023-12-14T07:06:57;97944.52;;;4.76;75.78
84051;BME280;74137;50.136;19.040;2023-12-14T07:09:29;97946.48;;;4.71;75.82
84051;BME280;74137;50.136;19.040;2023-12-14T07:11:59;97954.77;;;4.65;75.88
84051;BME280;74137;50.136;19.040;2023-12-14T07:14:31;97958.33;;;4.59;76.00
84051;BME280;74137;50.136;19.040;2023-12-14T07:17:00;97963.45;;;4.54;76.07
84051;BME280;74137;50.136;19.040;2023-12-14T07:19:30;97967.64;;;4.50;76.16
84051;BME280;74137;50.136;19.040;2023-12-14T07:22:01;97972.29;;;4.47;76.14
84051;BME280;74137;50.136;19.040;2023-12-14T07:24:29;97973.41;;;4.45;76.27
84051;BME280;74137;50.136;19.040;2023-12-14T07:27:16;97975.79;;;4.43;76.36
84051;BME280;74137;50.136;19.040;2023-12-14T07:29:45;97978.91;;;4.39;76.29
84051;BME280;74137;50.136;19.040;2023-12-14T07:32:16;97983.11;;;4.34;76.28
84051;BME280;74137;50.136;19.040;2023-12-14T07:34:46;97989.50;;;4.32;76.44
84051;BME280;74137;50.136;19.040;2023-12-14T07:37:15;97992.58;;;4.29;76.42
84051;BME280;74137;50.136;19.040;2023-12-14T07:39:44;97998.73;;;4.27;76.38
84051;BME280;74137;50.136;19.040;2023-12-14T07:42:13;98006.06;;;4.26;76.46
84051;BME280;74137;50.136;19.040;2023-12-14T07:44:49;98012.29;;;4.27;76.58
84051;BME280;74137;50.136;19.040;2023-12-14T07:47:31;98015.98;;;4.26;76.47
84051;BME280;74137;50.136;19.040;2023-12-14T07:50:01;98012.40;;;4.24;76.57
84051;BME280;74137;50.136;19.040;2023-12-14T07:52:31;98016.14;;;4.22;76.66
84051;BME280;74137;50.136;19.040;2023-12-14T07:54:59;98020.25;;;4.23;76.81
84051;BME280;74137;50.136;19.040;2023-12-14T07:57:29;98027.95;;;4.26;76.82
84051;BME280;74137;50.136;19.040;2023-12-14T07:59:58;98035.49;;;4.28;76.60
84051;BME280;74137;50.136;19.040;2023-12-14T08:02:28;98042.53;;;4.30;76.76
84051;BME280;74137;50.136;19.040;2023-12-14T08:04:57;98042.30;;;4.32;76.74
84051;BME280;74137;50.136;19.040;2023-12-14T08:07:28;98043.67;;;4.32;76.67
84051;BME280;74137;50.136;19.040;2023-12-14T08:09:58;98047.33;;;4.33;76.69
84051;BME280;74137;50.136;19.040;2023-12-14T08:12:28;98052.32;;;4.33;76.74
84051;BME280;74137;50.136;19.040;2023-12-14T08:15:00;98052.48;;;4.34;76.60
84051;BME280;74137;50.136;19.040;2023-12-14T08:17:37;98057.66;;;4.34;76.55
84051;BME280;74137;50.136;19.040;2023-12-14T08:20:08;98059.98;;;4.32;76.47
84051;BME280;74137;50.136;19.040;2023-12-14T08:22:40;98066.32;;;4.35;76.73
84051;BME280;74137;50.136;19.040;2023-12-14T08:25:14;98066.15;;;4.39;76.74
84051;BME280;74137;50.136;19.040;2023-12-14T08:27:43;98066.71;;;4.38;76.60
84051;BME280;74137;50.136;19.040;2023-12-14T08:30:13;98073.23;;;4.40;76.77
84051;BME280;74137;50.136;19.040;2023-12-14T08:32:43;98075.92;;;4.42;76.54
84051;BME280;74137;50.136;19.040;2023-12-14T08:35:13;98075.19;;;4.43;76.59
84051;BME280;74137;50.136;19.040;2023-12-14T08:37:43;98081.93;;;4.47;76.61
84051;BME280;74137;50.136;19.040;2023-12-14T08:40:13;98087.61;;;4.49;76.51
84051;BME280;74137;50.136;19.040;2023-12-14T08:42:47;98090.07;;;4.48;76.50
84051;BME280;74137;50.136;19.040;2023-12-14T08:45:19;98092.52;;;4.48;76.31
84051;BME280;74137;50.136;19.040;2023-12-14T08:47:53;98094.00;;;4.46;76.40
84051;BME280;74137;50.136;19.040;2023-12-14T08:50:26;98096.51;;;4.44;76.19
84051;BME280;74137;50.136;19.040;2023-12-14T08:52:55;98106.59;;;4.44;76.23
84051;BME280;74137;50.136;19.040;2023-12-14T08:55:38;98111.38;;;4.46;76.41
84051;BME280;74137;50.136;19.040;2023-12-14T08:58:09;98116.77;;;4.46;76.56
84051;BME280;74137;50.136;19.040;2023-12-14T09:00:38;98125.61;;;4.46;76.57
84051;BME280;74137;50.136;19.040;2023-12-14T09:03:08;98129.44;;;4.46;76.34
84051;BME280;74137;50.136;19.040;2023-12-14T09:05:39;98136.02;;;4.47;76.30
84051;BME280;74137;50.136;19.040;2023-12-14T09:08:13;98133.61;;;4.46;76.39
84051;BME280;74137;50.136;19.040;2023-12-14T09:10:43;98132.59;;;4.45;76.29
84051;BME280;74137;50.136;19.040;2023-12-14T09:13:11;98133.87;;;4.44;76.35
84051;BME280;74137;50.136;19.040;2023-12-14T09:15:40;98139.25;;;4.44;76.44
84051;BME280;74137;50.136;19.040;2023-12-14T09:18:10;98141.91;;;4.47;76.61
84051;BME280;74137;50.136;19.040;2023-12-14T09:20:39;98149.52;;;4.48;76.52
84051;BME280;74137;50.136;19.040;2023-12-14T09:23:09;98148.31;;;4.48;76.47
84051;BME280;74137;50.136;19.040;2023-12-14T09:25:38;98155.60;;;4.48;76.49
84051;BME280;74137;50.136;19.040;2023-12-14T09:28:06;98155.90;;;4.45;76.59
84051;BME280;74137;50.136;19.040;2023-12-14T09:30:36;98156.02;;;4.42;76.57
84051;BME280;74137;50.136;19.040;2023-12-14T09:33:06;98153.66;;;4.41;76.53
84051;BME280;74137;50.136;19.040;2023-12-14T09:35:38;98155.41;;;4.41;76.82
84051;BME280;74137;50.136;19.040;2023-12-14T09:38:07;98156.14;;;4.44;76.84
84051;BME280;74137;50.136;19.040;2023-12-14T09:40:39;98165.40;;;4.47;76.71
84051;BME280;74137;50.136;19.040;2023-12-14T09:43:08;98163.49;;;4.46;76.84
84051;BME280;74137;50.136;19.040;2023-12-14T09:45:38;98168.69;;;4.47;76.69
84051;BME280;74137;50.136;19.040;2023-12-14T09:48:11;98168.02;;;4.46;76.80
84051;BME280;74137;50.136;19.040;2023-12-14T09:50:40;98170.02;;;4.44;76.71
84051;BME280;74137;50.136;19.040;2023-12-14T09:53:12;98171.59;;;4.44;76.75
84051;BME280;74137;50.136;19.040;2023-12-14T09:55:44;98173.73;;;4.47;76.54
84051;BME280;74137;50.136;19.040;2023-12-14T09:58:14;98170.41;;;4.47;76.61
84051;BME280;74137;50.136;19.040;2023-12-14T10:00:42;98169.23;;;4.46;76.57
84051;BME280;74137;50.136;19.040;2023-12-14T10:03:23;98171.23;;;4.49;76.93
84051;BME280;74137;50.136;19.040;2023-12-14T10:06:18;98171.45;;;4.52;76.98
84051;BME280;74137;50.136;19.040;2023-12-14T10:08:55;98174.74;;;4.52;76.98
84051;BME280;74137;50.136;19.040;2023-12-14T10:11:26;98178.44;;;4.51;76.51
84051;BME280;74137;50.136;19.040;2023-12-14T10:13:56;98183.40;;;4.48;76.45
84051;BME280;74137;50.136;19.040;2023-12-14T10:16:34;98182.10;;;4.46;76.79
84051;BME280;74137;50.136;19.040;2023-12-14T10:19:03;98187.13;;;4.43;76.41
84051;BME280;74137;50.136;19.040;2023-12-14T10:21:36;98187.83;;;4.39;76.70
84051;BME280;74137;50.136;19.040;2023-12-14T10:24:06;98188.16;;;4.39;76.73
84051;BME280;74137;50.136;19.040;2023-12-14T10:26:35;98190.77;;;4.39;76.63
84051;BME280;74137;50.136;19.040;2023-12-14T10:29:06;98191.83;;;4.38;76.59
84051;BME280;74137;50.136;19.040;2023-12-14T10:31:37;98192.69;;;4.39;76.54
84051;BME280;74137;50.136;19.040;2023-12-14T10:34:07;98187.64;;;4.39;76.63
84051;BME280;74137;50.136;19.040;2023-12-14T10:36:37;98193.73;;;4.39;76.84
84051;BME280;74137;50.136;19.040;2023-12-14T10:39:05;98194.83;;;4.41;76.84
84051;BME280;74137;50.136;19.040;2023-12-14T10:41:39;98197.77;;;4.42;76.81
84051;BME280;74137;50.136;19.040;2023-12-14T10:44:09;98195.65;;;4.42;76.73
84051;BME280;74137;50.136;19.040;2023-12-14T10:46:59;98201.02;;;4.42;76.55
84051;BME280;74137;50.136;19.040;2023-12-14T10:49:35;98202.05;;;4.43;76.59
84051;BME280;74137;50.136;19.040;2023-12-14T10:52:05;98212.38;;;4.45;76.55
84051;BME280;74137;50.136;19.040;2023-12-14T10:54:37;98210.50;;;4.45;76.79
84051;BME280;74137;50.136;19.040;2023-12-14T10:57:07;98219.11;;;4.51;76.70
84051;BME280;74137;50.136;19.040;2023-12-14T10:59:37;98217.19;;;4.51;76.61
84051;BME280;74137;50.136;19.040;2023-12-14T11:02:09;98217.73;;;4.51;76.64
84051;BME280;74137;50.136;19.040;2023-12-14T11:04:57;98220.62;;;4.48;76.46
84051;BME280;74137;50.136;19.040;2023-12-14T11:07:49;98227.17;;;4.49;76.74
84051;BME280;74137;50.136;19.040;2023-12-14T11:10:23;98232.57;;;4.53;76.67
84051;BME280;74137;50.136;19.040;2023-12-14T11:12:59;98237.38;;;4.55;76.58
84051;BME280;74137;50.136;19.040;2023-12-14T11:15:30;98243.34;;;4.54;76.62
84051;BME280;74137;50.136;19.040;2023-12-14T11:23:30;98248.52;;;4.54;76.65
84051;BME280;74137;50.136;19.040;2023-12-14T11:26:06;98249.56;;;4.55;76.64
84051;BME280;74137;50.136;19.040;2023-12-14T11:28:39;98250.89;;;4.56;76.52
84051;BME280;74137;50.136;19.040;2023-12-14T11:31:14;98256.99;;;4.59;76.61
84051;BME280;74137;50.136;19.040;2023-12-14T11:33:43;98255.36;;;4.61;76.47
84051;BME280;74137;50.136;19.040;2023-12-14T11:36:14;98256.63;;;4.60;76.42
84051;BME280;74137;50.136;19.040;2023-12-14T11:38:50;98257.32;;;4.60;76.53
84051;BME280;74137;50.136;19.040;2023-12-14T11:41:21;98257.96;;;4.61;76.47
84051;BME280;74137;50.136;19.040;2023-12-14T11:44:07;98255.86;;;4.66;76.38
84051;BME280;74137;50.136;19.040;2023-12-14T11:46:48;98259.70;;;4.70;76.40
84051;BME280;74137;50.136;19.040;2023-12-14T11:49:17;98260.73;;;4.70;76.29
84051;BME280;74137;50.136;19.040;2023-12-14T11:51:46;98264.09;;;4.73;76.31
84051;BME280;74137;50.136;19.040;2023-12-14T11:54:16;98268.59;;;4.73;76.22
84051;BME280;74137;50.136;19.040;2023-12-14T11:56:48;98270.09;;;4.71;76.26
84051;BME280;74137;50.136;19.040;2023-12-14T11:59:19;98273.15;;;4.72;76.21
84051;BME280;74137;50.136;19.040;2023-12-14T12:01:57;98271.66;;;4.75;76.16
84051;BME280;74137;50.136;19.040;2023-12-14T12:04:26;98271.61;;;4.76;76.29
84051;BME280;74137;50.136;19.040;2023-12-14T12:09:35;98272.70;;;4.79;76.30
84051;BME280;74137;50.136;19.040;2023-12-14T12:12:09;98274.85;;;4.77;76.17
84051;BME280;74137;50.136;19.040;2023-12-14T12:14:39;98283.80;;;4.76;76.09
84051;BME280;74137;50.136;19.040;2023-12-14T12:17:10;98285.89;;;4.76;76.34
84051;BME280;74137;50.136;19.040;2023-12-14T12:19:39;98288.02;;;4.74;76.23
84051;BME280;74137;50.136;19.040;2023-12-14T12:22:11;98291.91;;;4.73;76.18
84051;BME280;74137;50.136;19.040;2023-12-14T12:24:41;98295.80;;;4.72;76.21
84051;BME280;74137;50.136;19.040;2023-12-14T12:27:10;98296.55;;;4.71;76.27
84051;BME280;74137;50.136;19.040;2023-12-14T12:29:45;98298.17;;;4.68;76.25
84051;BME280;74137;50.136;19.040;2023-12-14T12:32:14;98297.90;;;4.66;76.32
84051;BME280;74137;50.136;19.040;2023-12-14T12:34:43;98306.06;;;4.67;76.15
84051;BME280;74137;50.136;19.040;2023-12-14T12:37:13;98308.70;;;4.66;76.38
84051;BME280;74137;50.136;19.040;2023-12-14T12:39:43;98308.94;;;4.64;76.30
84051;BME280;74137;50.136;19.040;2023-12-14T12:42:12;98307.96;;;4.63;76.31
84051;BME280;74137;50.136;19.040;2023-12-14T12:44:43;98312.34;;;4.62;76.51
84051;BME280;74137;50.136;19.040;2023-12-14T12:47:14;98314.80;;;4.62;76.54
84051;BME280;74137;50.136;19.040;2023-12-14T12:49:43;98315.86;;;4.61;76.49
84051;BME280;74137;50.136;19.040;2023-12-14T12:52:13;98321.98;;;4.65;76.34
84051;BME280;74137;50.136;19.040;2023-12-14T12:54:41;98322.85;;;4.69;76.43
84051;BME280;74137;50.136;19.040;2023-12-14T12:57:10;98329.81;;;4.73;76.54
84051;BME280;74137;50.136;19.040;2023-12-14T12:59:43;98333.95;;;4.74;76.52
84051;BME280;74137;50.136;19.040;2023-12-14T13:02:15;98341.55;;;4.79;76.50
84051;BME280;74137;50.136;19.040;2023-12-14T13:04:48;98344.61;;;4.81;76.30
84051;BME280;74137;50.136;19.040;2023-12-14T13:07:32;98343.45;;;4.80;76.43
84051;BME280;74137;50.136;19.040;2023-12-14T13:10:01;98350.77;;;4.83;76.23
84051;BME280;74137;50.136;19.040;2023-12-14T13:12:48;98354.80;;;4.83;76.06
84051;BME280;74137;50.136;19.040;2023-12-14T13:18:05;98366.61;;;4.75;76.27
84051;BME280;74137;50.136;19.040;2023-12-14T13:20:34;98368.45;;;4.72;76.24
84051;BME280;74137;50.136;19.040;2023-12-14T13:23:12;98371.14;;;4.70;76.34
84051;BME280;74137;50.136;19.040;2023-12-14T13:25:47;98372.85;;;4.71;76.45
84051;BME280;74137;50.136;19.040;2023-12-14T13:28:23;98383.65;;;4.71;76.51
84051;BME280;74137;50.136;19.040;2023-12-14T13:30:56;98386.34;;;4.69;76.44
84051;BME280;74137;50.136;19.040;2023-12-14T13:34:32;98393.56;;;4.70;76.40
84051;BME280;74137;50.136;19.040;2023-12-14T13:37:14;98398.91;;;4.72;76.38
84051;BME280;74137;50.136;19.040;2023-12-14T13:42:36;98401.84;;;4.68;76.27
84051;BME280;74137;50.136;19.040;2023-12-14T13:45:17;98410.58;;;4.71;76.44
84051;BME280;74137;50.136;19.040;2023-12-14T13:47:49;98410.61;;;4.71;76.27
84051;BME280;74137;50.136;19.040;2023-12-14T14:00:09;98440.21;;;4.69;76.45
84051;BME280;74137;50.136;19.040;2023-12-14T14:02:40;98441.23;;;4.70;76.61
84051;BME280;74137;50.136;19.040;2023-12-14T14:08:17;98450.88;;;4.67;76.60
84051;BME280;74137;50.136;19.040;2023-12-14T14:13:43;98458.41;;;4.66;76.33
84051;BME280;74137;50.136;19.040;2023-12-14T14:22:50;98466.31;;;4.55;76.59
84051;BME280;74137;50.136;19.040;2023-12-14T14:28:37;98476.58;;;4.55;76.87
84051;BME280;74137;50.136;19.040;2023-12-14T14:34:22;98483.26;;;4.57;76.89
84051;BME280;74137;50.136;19.040;2023-12-14T14:36:57;98489.13;;;4.58;76.72
84051;BME280;74137;50.136;19.040;2023-12-14T14:42:16;98496.05;;;4.59;76.81
84051;BME280;74137;50.136;19.040;2023-12-14T14:44:47;98498.31;;;4.59;76.80
84051;BME280;74137;50.136;19.040;2023-12-14T14:47:19;98505.27;;;4.60;76.71
84051;BME280;74137;50.136;19.040;2023-12-14T14:49:49;98505.02;;;4.57;76.79
84051;BME280;74137;50.136;19.040;2023-12-14T14:52:21;98510.89;;;4.58;76.92
84051;BME280;74137;50.136;19.040;2023-12-14T14:55:09;98517.27;;;4.60;76.79
84051;BME280;74137;50.136;19.040;2023-12-14T14:58:22;98521.30;;;4.58;76.90
84051;BME280;74137;50.136;19.040;2023-12-14T15:01:03;98527.11;;;4.57;76.94
84051;BME280;74137;50.136;19.040;2023-12-14T15:03:47;98529.73;;;4.56;76.83
84051;BME280;74137;50.136;19.040;2023-12-14T15:06:26;98528.39;;;4.54;76.88
84051;BME280;74137;50.136;19.040;2023-12-14T15:09:12;98527.45;;;4.52;76.99
84051;BME280;74137;50.136;19.040;2023-12-14T15:11:45;98530.79;;;4.51;77.07
84051;BME280;74137;50.136;19.040;2023-12-14T15:14:33;98532.17;;;4.51;77.19
84051;BME280;74137;50.136;19.040;2023-12-14T15:20:04;98536.71;;;4.56;77.11
84051;BME280;74137;50.136;19.040;2023-12-14T15:22:51;98543.63;;;4.56;77.01
84051;BME280;74137;50.136;19.040;2023-12-14T15:25:43;98549.55;;;4.56;77.20
84051;BME280;74137;50.136;19.040;2023-12-14T15:31:50;98546.41;;;4.52;76.95
84051;BME280;74137;50.136;19.040;2023-12-14T15:34:35;98548.04;;;4.50;76.90
84051;BME280;74137;50.136;19.040;2023-12-14T15:40:30;98562.83;;;4.50;77.14
84051;BME280;74137;50.136;19.040;2023-12-14T15:49:33;98579.80;;;4.46;77.12
84051;BME280;74137;50.136;19.040;2023-12-14T15:52:03;98587.63;;;4.46;77.06
84051;BME280;74137;50.136;19.040;2023-12-14T15:54:34;98593.77;;;4.45;77.12
84051;BME280;74137;50.136;19.040;2023-12-14T15:57:07;98599.52;;;4.44;77.14
84051;BME280;74137;50.136;19.040;2023-12-14T15:59:38;98602.91;;;4.42;77.15
84051;BME280;74137;50.136;19.040;2023-12-14T16:05:17;98610.55;;;4.37;77.01
84051;BME280;74137;50.136;19.040;2023-12-14T16:10:50;98606.89;;;4.38;77.28
84051;BME280;74137;50.136;19.040;2023-12-14T16:13:31;98610.63;;;4.40;77.27
84051;BME280;74137;50.136;19.040;2023-12-14T16:16:04;98609.28;;;4.39;77.17
84051;BME280;74137;50.136;19.040;2023-12-14T16:18:35;98613.63;;;4.39;77.17
84051;BME280;74137;50.136;19.040;2023-12-14T16:23:55;98625.46;;;4.43;77.32
84051;BME280;74137;50.136;19.040;2023-12-14T16:26:28;98635.66;;;4.45;77.40
84051;BME280;74137;50.136;19.040;2023-12-14T16:29:04;98636.75;;;4.43;77.34
84051;BME280;74137;50.136;19.040;2023-12-14T16:31:44;98643.00;;;4.44;77.07
84051;BME280;74137;50.136;19.040;2023-12-14T16:34:28;98648.52;;;4.44;77.19
84051;BME280;74137;50.136;19.040;2023-12-14T16:36:59;98650.75;;;4.46;77.13
84051;BME280;74137;50.136;19.040;2023-12-14T16:39:35;98653.86;;;4.46;77.16
84051;BME280;74137;50.136;19.040;2023-12-14T16:42:08;98656.78;;;4.47;77.26
84051;BME280;74137;50.136;19.040;2023-12-14T16:50:57;98674.71;;;4.46;77.10
84051;BME280;74137;50.136;19.040;2023-12-14T16:53:31;98681.63;;;4.48;77.14
84051;BME280;74137;50.136;19.040;2023-12-14T17:25:19;98720.66;;;4.40;77.45
84051;BME280;74137;50.136;19.040;2023-12-14T17:29:12;98727.42;;;4.40;77.48
84051;BME280;74137;50.136;19.040;2023-12-14T17:32:56;98731.10;;;4.40;77.47
84051;BME280;74137;50.136;19.040;2023-12-14T17:36:04;98731.44;;;4.40;77.37
84051;BME280;74137;50.136;19.040;2023-12-14T17:39:13;98738.25;;;4.39;77.37
84051;BME280;74137;50.136;19.040;2023-12-14T17:45:55;98750.55;;;4.40;77.48
84051;BME280;74137;50.136;19.040;2023-12-14T17:48:29;98748.82;;;4.40;77.52
84051;BME280;74137;50.136;19.040;2023-12-14T17:51:50;98759.34;;;4.42;77.48
84051;BME280;74137;50.136;19.040;2023-12-14T17:58:29;98762.02;;;4.40;77.48
84051;BME280;74137;50.136;19.040;2023-12-14T18:17:57;98799.52;;;4.30;77.29
84051;BME280;74137;50.136;19.040;2023-12-14T18:21:08;98800.23;;;4.30;77.35
84051;BME280;74137;50.136;19.040;2023-12-14T18:28:19;98802.14;;;4.36;77.42
84051;BME280;74137;50.136;19.040;2023-12-14T18:52:25;98851.13;;;4.20;77.48
84051;BME280;74137;50.136;19.040;2023-12-14T18:55:11;98852.86;;;4.20;77.28
84051;BME280;74137;50.136;19.040;2023-12-14T18:58:33;98849.91;;;4.14;77.21
84051;BME280;74137;50.136;19.040;2023-12-14T19:01:25;98862.06;;;4.14;77.44
84051;BME280;74137;50.136;19.040;2023-12-14T19:19:49;98889.42;;;4.11;77.60
84051;BME280;74137;50.136;19.040;2023-12-14T19:56:42;98953.03;;;4.35;75.30
84051;BME280;74137;50.136;19.040;2023-12-14T20:50:09;99013.61;;;3.32;76.66
84051;BME280;74137;50.136;19.040;2023-12-14T20:56:41;99024.38;;;3.32;76.97
84051;BME280;74137;50.136;19.040;2023-12-14T21:00:21;99028.92;;;3.31;76.69
84051;BME280;74137;50.136;19.040;2023-12-14T21:03:42;99033.89;;;3.27;76.92
84051;BME280;74137;50.136;19.040;2023-12-14T21:17:18;99065.39;;;3.24;77.02
84051;BME280;74137;50.136;19.040;2023-12-14T21:37:18;99091.23;;;3.15;76.96
84051;BME280;74137;50.136;19.040;2023-12-14T23:01:06;99215.22;;;3.02;75.97
